ACE weather

Lanzarote Airport
Lanzarote Island, Canary Islands, Spain

Public forecast

Using degrees Celsius for public forecast. Weather courtesy of forecast.io.

Current aviation weather report (METAR) for Lanzarote Airport

Retrieved 2020/01/21 22:30 UTC (25 minutes ago):

GCRR 212230Z 31003KT 250V340 9999 FEW030 14/08 Q1017

Aviation forecast (TAF) for Lanzarote Airport

Retrieved 2020/01/21 21:27 UTC (1 hour ago):

TAF GCRR 212000Z 2121/2221 33007KT 9999 FEW035 TX19/2214Z TN13/2207Z